createdAt,value
2019-04-01T00:00:34.689Z,11.93
2019-04-01T00:03:02.125Z,10.40
2019-04-01T00:05:28.924Z,10.32
2019-04-01T00:07:55.865Z,11.27
2019-04-01T00:10:22.643Z,11.80
2019-04-01T00:12:49.425Z,10.48
2019-04-01T00:15:16.260Z,11.22
2019-04-01T00:17:43.106Z,11.45
2019-04-01T00:20:09.893Z,10.80
2019-04-01T00:22:36.751Z,11.00
2019-04-01T00:25:03.616Z,11.08
2019-04-01T00:27:30.457Z,9.85
2019-04-01T00:29:57.241Z,11.20
2019-04-01T00:32:24.027Z,11.43
2019-04-01T00:34:50.857Z,10.95
2019-04-01T00:37:17.640Z,11.22
2019-04-01T00:39:44.477Z,11.33
2019-04-01T00:42:13.128Z,11.22
2019-04-01T00:44:40.461Z,11.77
2019-04-01T00:47:07.393Z,11.22
2019-04-01T00:49:34.236Z,10.90
2019-04-01T00:52:01.069Z,10.90
2019-04-01T00:54:27.849Z,11.45
2019-04-01T00:56:54.702Z,11.90
2019-04-01T00:59:21.582Z,12.18
2019-04-01T01:01:48.367Z,12.33
2019-04-01T01:04:15.208Z,11.57
2019-04-01T01:06:42.033Z,10.98
2019-04-01T01:09:08.815Z,12.00
2019-04-01T01:11:35.661Z,11.93
2019-04-01T01:14:02.600Z,11.90
2019-04-01T01:16:29.385Z,12.40
2019-04-01T01:18:56.261Z,11.88
2019-04-01T01:21:23.065Z,12.30
2019-04-01T01:23:49.844Z,12.90
2019-04-01T01:26:16.620Z,12.80
2019-04-01T01:28:43.470Z,11.93
2019-04-01T01:31:10.286Z,11.93
2019-04-01T01:33:37.113Z,12.40
2019-04-01T01:36:03.902Z,14.18
2019-04-01T01:38:30.740Z,13.55
2019-04-01T01:40:57.532Z,13.70
2019-04-01T01:43:24.371Z,14.70
2019-04-01T01:45:51.220Z,14.03
2019-04-01T01:48:18.065Z,14.50
2019-04-01T01:50:44.848Z,13.70
2019-04-01T01:53:11.624Z,13.85
2019-04-01T01:55:38.460Z,13.22
2019-04-01T01:58:05.240Z,13.65
2019-04-01T02:00:33.170Z,13.00
2019-04-01T02:02:59.957Z,13.97
2019-04-01T02:05:26.808Z,14.87
2019-04-01T02:07:53.597Z,16.60
2019-04-01T02:10:20.432Z,15.75
2019-04-01T02:12:47.259Z,14.53
2019-04-01T02:15:14.048Z,13.58
2019-04-01T02:17:40.873Z,14.90
2019-04-01T02:20:07.755Z,15.60
2019-04-01T02:22:34.597Z,16.07
2019-04-01T02:25:01.376Z,15.60
2019-04-01T02:27:28.361Z,16.25
2019-04-01T02:29:55.210Z,16.52
2019-04-01T02:32:22.086Z,16.73
2019-04-01T02:34:48.832Z,14.38
2019-04-01T02:37:15.665Z,15.95
2019-04-01T02:39:42.454Z,16.17
2019-04-01T02:42:09.294Z,17.12
2019-04-01T02:44:36.125Z,18.90
2019-04-01T02:47:02.959Z,18.25
2019-04-01T02:49:29.789Z,19.40
2019-04-01T02:51:56.573Z,18.73
2019-04-01T02:54:23.408Z,17.05
2019-04-01T02:56:50.198Z,19.10
2019-04-01T02:59:17.046Z,19.05
2019-04-01T03:01:43.824Z,20.20
2019-04-01T03:04:10.999Z,20.50
2019-04-01T03:06:37.785Z,19.48
2019-04-01T03:09:05.774Z,20.80
2019-04-01T03:11:32.604Z,18.60
2019-04-01T03:13:59.382Z,20.72
2019-04-01T03:16:26.221Z,21.70
2019-04-01T03:18:53.556Z,21.20
2019-04-01T03:21:20.402Z,20.77
2019-04-01T03:23:47.180Z,19.20
2019-04-01T03:26:13.962Z,20.17
2019-04-01T03:28:40.803Z,20.40
2019-04-01T03:31:07.582Z,19.42
2019-04-01T03:33:34.477Z,19.73
2019-04-01T03:36:01.409Z,21.30
2019-04-01T03:38:28.336Z,22.75
2019-04-01T03:40:55.217Z,23.40
2019-04-01T03:43:22.697Z,23.90
2019-04-01T03:45:49.576Z,21.23
2019-04-01T03:48:16.378Z,22.27
2019-04-01T03:50:43.213Z,21.55
2019-04-01T03:53:09.989Z,23.18
2019-04-01T03:55:36.839Z,21.52
2019-04-01T03:58:03.616Z,21.50
2019-04-01T04:00:31.302Z,22.90
2019-04-01T04:02:58.133Z,24.25
2019-04-01T04:05:24.966Z,24.25
2019-04-01T04:07:51.913Z,24.75
2019-04-01T04:10:18.727Z,25.15
2019-04-01T04:12:45.511Z,26.42
2019-04-01T04:15:12.657Z,27.20
2019-04-01T04:17:39.497Z,27.73
2019-04-01T04:20:08.163Z,26.87
2019-04-01T04:22:36.429Z,26.07
2019-04-01T04:25:04.970Z,26.40
2019-04-01T04:27:31.808Z,26.40
2019-04-01T04:29:58.591Z,27.37
2019-04-01T04:32:25.427Z,27.80
2019-04-01T04:34:52.200Z,27.20
2019-04-01T04:37:19.038Z,27.55
2019-04-01T04:39:45.873Z,27.82
2019-04-01T04:42:12.706Z,27.45
2019-04-01T04:44:39.496Z,29.00
2019-04-01T04:47:06.408Z,29.40
2019-04-01T04:49:33.184Z,29.55
2019-04-01T04:52:00.022Z,28.98
2019-04-01T04:54:26.869Z,27.37
2019-04-01T04:56:53.704Z,28.95
2019-04-01T04:59:20.551Z,28.17
2019-04-01T05:01:47.323Z,27.65
2019-04-01T05:04:14.256Z,28.87
2019-04-01T05:06:41.086Z,27.10
2019-04-01T05:09:07.917Z,29.55
2019-04-01T05:11:34.712Z,29.37
2019-04-01T05:14:01.555Z,30.15
2019-04-01T05:16:28.388Z,29.60
2019-04-01T05:18:55.231Z,28.70
2019-04-01T05:21:22.660Z,27.70
2019-04-01T05:23:50.293Z,27.98
2019-04-01T05:26:19.731Z,28.87
2019-04-01T05:28:48.089Z,31.12
2019-04-01T05:31:18.686Z,30.17
2019-04-01T05:33:55.391Z,30.40
2019-04-01T05:36:16.877Z,31.05
2019-04-01T05:38:43.765Z,29.82
2019-04-01T05:41:11.601Z,31.73
2019-04-01T05:43:39.176Z,30.90
2019-04-01T05:46:06.010Z,29.87
2019-04-01T05:48:32.792Z,31.90
2019-04-01T05:50:59.631Z,31.97
2019-04-01T05:53:26.410Z,29.90
2019-04-01T05:55:53.232Z,32.53
2019-04-01T05:58:20.024Z,31.27
2019-04-01T06:00:58.715Z,32.20
2019-04-01T06:03:25.498Z,31.50
2019-04-01T06:05:52.366Z,30.15
2019-04-01T06:08:19.266Z,32.85
2019-04-01T06:10:46.050Z,32.07
2019-04-01T06:13:12.864Z,32.23
2019-04-01T06:15:39.696Z,31.57
2019-04-01T06:18:06.481Z,33.95
2019-04-01T06:20:33.312Z,33.20
2019-04-01T06:23:00.112Z,32.70
2019-04-01T06:25:26.897Z,33.53
2019-04-01T06:27:53.735Z,33.28
2019-04-01T06:30:20.533Z,33.23
2019-04-01T06:32:47.567Z,33.23
2019-04-01T06:35:14.353Z,33.73
2019-04-01T06:37:41.196Z,33.78
2019-04-01T06:40:08.233Z,35.05
2019-04-01T06:42:35.017Z,33.53
2019-04-01T06:45:01.797Z,33.50
2019-04-01T06:47:29.231Z,34.08
2019-04-01T06:49:56.013Z,33.80
2019-04-01T06:52:22.854Z,34.25
2019-04-01T06:54:49.646Z,34.38
2019-04-01T06:57:16.476Z,32.77
2019-04-01T06:59:44.112Z,33.25
2019-04-01T07:02:11.196Z,33.65
2019-04-01T07:04:38.021Z,34.08
2019-04-01T07:07:18.292Z,32.60
2019-04-01T07:09:33.989Z,34.80
2019-04-01T07:12:00.881Z,34.00
2019-04-01T07:14:27.716Z,33.08
2019-04-01T07:16:54.709Z,32.70
2019-04-01T07:19:21.601Z,33.48
2019-04-01T07:21:48.837Z,33.33
2019-04-01T07:24:15.652Z,34.20
2019-04-01T07:26:42.461Z,33.10
2019-04-01T07:29:09.536Z,32.83
2019-04-01T07:31:38.240Z,32.17
2019-04-01T07:34:05.016Z,34.90
2019-04-01T07:36:31.811Z,31.23
2019-04-01T07:38:58.644Z,31.12
2019-04-01T07:41:25.537Z,32.50
2019-04-01T07:43:52.373Z,31.50
2019-04-01T07:46:19.226Z,31.10
2019-04-01T07:48:46.140Z,30.85
2019-04-01T07:51:12.994Z,31.85
2019-04-01T07:53:39.838Z,30.48
2019-04-01T07:56:07.424Z,30.05
2019-04-01T07:58:34.357Z,30.00
2019-04-01T08:01:01.147Z,29.85
2019-04-01T08:03:27.976Z,29.10
2019-04-01T08:05:54.916Z,30.40
2019-04-01T08:08:21.753Z,30.23
2019-04-01T08:10:48.532Z,30.20
2019-04-01T08:13:15.465Z,29.57
2019-04-01T08:15:42.250Z,30.17
2019-04-01T08:18:09.094Z,30.72
2019-04-01T08:20:35.877Z,29.05
2019-04-01T08:23:02.717Z,29.77
2019-04-01T08:25:29.492Z,29.20
2019-04-01T08:27:56.342Z,28.05
2019-04-01T08:30:23.128Z,30.15
2019-04-01T08:32:49.909Z,30.55
2019-04-01T08:35:16.750Z,28.85
2019-04-01T08:37:43.600Z,30.32
2019-04-01T08:40:10.484Z,28.90
2019-04-01T08:42:37.320Z,29.20
2019-04-01T08:45:06.760Z,28.27
2019-04-01T08:47:33.707Z,29.00
2019-04-01T08:50:08.234Z,29.55
2019-04-01T08:52:35.073Z,29.27
2019-04-01T08:55:03.333Z,28.00
2019-04-01T08:57:30.209Z,29.70
2019-04-01T08:59:58.053Z,29.23
2019-04-01T09:02:26.225Z,28.65
2019-04-01T09:04:53.381Z,29.30
2019-04-01T09:07:20.289Z,29.27
2019-04-01T09:09:48.134Z,29.05
2019-04-01T09:12:15.328Z,30.08
2019-04-01T09:14:42.774Z,29.90
2019-04-01T09:17:09.548Z,30.15
2019-04-01T09:19:36.446Z,29.77
2019-04-01T09:22:03.336Z,30.13
2019-04-01T09:24:30.184Z,29.92
2019-04-01T09:26:56.960Z,29.75
2019-04-01T09:29:23.745Z,29.52
2019-04-01T09:31:50.582Z,29.85
2019-04-01T09:34:17.425Z,28.32
2019-04-01T09:36:44.305Z,29.70
2019-04-01T09:39:11.084Z,30.27
2019-04-01T09:41:38.813Z,29.10
2019-04-01T09:44:05.706Z,28.17
2019-04-01T09:46:32.537Z,30.10
2019-04-01T09:48:59.422Z,29.32
2019-04-01T09:51:48.782Z,30.10
2019-04-01T09:54:14.583Z,28.95
2019-04-01T09:56:41.517Z,31.68
2019-04-01T09:59:08.478Z,29.00
2019-04-01T10:01:35.362Z,28.97
2019-04-01T10:04:02.141Z,29.13
2019-04-01T10:06:28.981Z,29.52
2019-04-01T10:08:55.857Z,29.02
2019-04-01T10:11:22.636Z,29.48
2019-04-01T10:13:49.512Z,28.92
2019-04-01T10:16:16.304Z,29.87
2019-04-01T10:18:43.141Z,29.60
2019-04-01T10:21:10.052Z,29.55
2019-04-01T10:23:36.939Z,29.50
2019-04-01T10:26:03.733Z,28.90
2019-04-01T10:28:50.329Z,27.93
2019-04-01T10:31:17.109Z,27.65
2019-04-01T10:33:43.892Z,27.32
2019-04-01T10:36:10.733Z,27.00
2019-04-01T10:38:37.576Z,28.60
2019-04-01T10:41:04.460Z,28.83
2019-04-01T10:43:31.249Z,28.27
2019-04-01T10:45:58.089Z,28.12
2019-04-01T10:48:24.931Z,27.40
2019-04-01T10:50:51.879Z,27.20
2019-04-01T10:53:18.811Z,27.70
2019-04-01T10:55:45.827Z,28.12
2019-04-01T10:58:12.634Z,28.17
2019-04-01T11:00:39.376Z,28.20
2019-04-01T11:03:06.513Z,27.90
2019-04-01T11:05:33.396Z,27.32
2019-04-01T11:08:00.300Z,28.23
2019-04-01T11:10:27.088Z,27.77
2019-04-01T11:12:53.970Z,25.80
2019-04-01T11:15:21.477Z,26.62
2019-04-01T11:17:51.896Z,26.80
2019-04-01T11:20:16.911Z,27.87
2019-04-01T11:22:43.695Z,26.07
2019-04-01T11:25:10.625Z,25.05
2019-04-01T11:27:37.464Z,24.75
2019-04-01T11:30:05.896Z,26.17
2019-04-01T11:32:34.161Z,24.50
2019-04-01T11:35:00.975Z,24.70
2019-04-01T11:37:27.795Z,23.83
2019-04-01T11:39:54.622Z,23.03
2019-04-01T11:42:22.298Z,23.45
2019-04-01T11:44:49.969Z,24.60
2019-04-01T11:47:16.772Z,22.97
2019-04-01T11:49:43.805Z,25.12
2019-04-01T11:52:10.762Z,23.90
2019-04-01T11:54:37.589Z,23.67
2019-04-01T11:57:04.381Z,22.87
2019-04-01T11:59:31.281Z,22.48
2019-04-01T12:01:58.064Z,22.47
2019-04-01T12:04:24.904Z,22.50
2019-04-01T12:06:51.756Z,23.62
2019-04-01T12:09:18.546Z,23.00
2019-04-01T12:11:45.376Z,23.55
2019-04-01T12:14:12.225Z,22.45
2019-04-01T12:16:39.020Z,23.50
2019-04-01T12:19:05.856Z,22.93
2019-04-01T12:21:32.692Z,21.80
2019-04-01T12:23:59.580Z,22.25
2019-04-01T12:26:26.532Z,22.82
2019-04-01T12:28:53.306Z,22.27
2019-04-01T12:31:21.600Z,22.22
2019-04-01T12:33:49.028Z,20.70
2019-04-01T12:36:15.812Z,21.15
2019-04-01T12:38:42.644Z,21.52
2019-04-01T12:41:09.435Z,21.97
2019-04-01T12:43:36.266Z,21.70
2019-04-01T12:46:03.152Z,21.90
2019-04-01T12:48:29.985Z,21.77
2019-04-01T12:50:56.771Z,21.52
2019-04-01T12:53:23.604Z,21.75
2019-04-01T12:55:51.091Z,22.25
2019-04-01T12:58:17.925Z,23.32
2019-04-01T13:00:45.017Z,21.85
2019-04-01T13:03:11.857Z,21.60
2019-04-01T13:05:38.689Z,23.00
2019-04-01T13:08:05.580Z,21.85
2019-04-01T13:10:32.374Z,22.62
2019-04-01T13:12:59.209Z,21.20
2019-04-01T13:15:25.987Z,22.32
2019-04-01T13:17:52.812Z,20.72
2019-04-01T13:20:19.697Z,21.60
2019-04-01T13:22:46.476Z,22.00
2019-04-01T13:25:13.319Z,20.35
2019-04-01T13:27:40.099Z,20.75
2019-04-01T13:30:07.442Z,21.00
2019-04-01T13:32:34.230Z,21.23
2019-04-01T13:35:01.052Z,20.70
2019-04-01T13:37:27.897Z,20.10
2019-04-01T13:39:54.745Z,21.05
2019-04-01T13:42:24.802Z,19.42
2019-04-01T13:44:50.560Z,18.98
2019-04-01T13:47:18.273Z,19.33
2019-04-01T13:49:45.106Z,19.50
2019-04-01T13:52:11.949Z,19.43
2019-04-01T13:54:38.726Z,19.62
2019-04-01T13:57:05.684Z,20.00
2019-04-01T13:59:32.502Z,18.60
2019-04-01T14:01:59.277Z,18.10
2019-04-01T14:04:27.378Z,18.32
2019-04-01T14:06:54.374Z,18.23
2019-04-01T14:09:21.222Z,17.62
2019-04-01T14:11:47.999Z,17.30
2019-04-01T14:14:14.852Z,18.90
2019-04-01T14:16:41.802Z,20.12
2019-04-01T14:19:08.829Z,18.40
2019-04-01T14:21:35.613Z,19.25
2019-04-01T14:24:02.442Z,17.40
2019-04-01T14:26:29.225Z,17.15
2019-04-01T14:28:56.051Z,17.70
2019-04-01T14:31:22.837Z,16.85
2019-04-01T14:33:49.671Z,18.70
2019-04-01T14:36:16.504Z,18.52
2019-04-01T14:38:43.322Z,17.55
2019-04-01T14:41:10.165Z,16.85
2019-04-01T14:43:36.949Z,17.30
2019-04-01T14:46:03.736Z,18.52
2019-04-01T14:48:30.721Z,17.75
2019-04-01T14:50:57.913Z,17.70
2019-04-01T14:53:24.709Z,16.07
2019-04-01T14:55:51.560Z,18.40
2019-04-01T14:58:18.392Z,17.23
2019-04-01T15:00:45.181Z,17.32
2019-04-01T15:03:12.025Z,17.82
2019-04-01T15:05:38.814Z,17.37
2019-04-01T15:08:05.601Z,18.65
2019-04-01T15:10:32.441Z,19.07
2019-04-01T15:13:05.551Z,16.87
2019-04-01T15:15:27.860Z,17.27
2019-04-01T15:17:54.641Z,16.85
2019-04-01T15:20:21.604Z,18.37
2019-04-01T15:22:48.444Z,16.35
2019-04-01T15:25:15.221Z,17.62
2019-04-01T15:27:42.056Z,17.82
2019-04-01T15:30:09.121Z,17.35
2019-04-01T15:32:36.005Z,17.23
2019-04-01T15:35:05.049Z,17.17
2019-04-01T15:37:32.297Z,16.15
2019-04-01T15:39:59.329Z,16.02
2019-04-01T15:42:26.165Z,16.60
2019-04-01T15:44:53.001Z,16.87
2019-04-01T15:47:19.948Z,15.30
2019-04-01T15:49:46.789Z,15.98
2019-04-01T15:52:13.673Z,17.35
2019-04-01T15:54:40.517Z,17.00
2019-04-01T15:57:07.317Z,17.15
2019-04-01T15:59:34.845Z,16.07
2019-04-01T16:02:01.845Z,16.17
2019-04-01T16:04:28.689Z,16.35
2019-04-01T16:06:55.538Z,16.52
2019-04-01T16:09:23.217Z,16.97
2019-04-01T16:11:53.842Z,16.37
2019-04-01T16:14:19.416Z,16.40
2019-04-01T16:16:46.397Z,15.75
2019-04-01T16:19:13.229Z,15.68
2019-04-01T16:21:40.309Z,16.77
2019-04-01T16:24:07.150Z,17.20
2019-04-01T16:26:34.002Z,15.60
2019-04-01T16:29:00.783Z,17.40
2019-04-01T16:31:27.620Z,16.25
2019-04-01T16:33:54.422Z,16.70
2019-04-01T16:36:21.267Z,16.82
2019-04-01T16:38:48.069Z,18.05
2019-04-01T16:41:16.697Z,17.55
2019-04-01T16:43:43.881Z,16.93
2019-04-01T16:46:12.127Z,16.25
2019-04-01T16:48:39.153Z,16.80
2019-04-01T16:51:05.994Z,17.80
2019-04-01T16:53:32.775Z,15.95
2019-04-01T16:55:59.618Z,17.12
2019-04-01T16:58:26.448Z,17.27
2019-04-01T17:00:54.094Z,17.25
2019-04-01T17:03:21.734Z,16.80
2019-04-01T17:05:48.580Z,15.50
2019-04-01T17:08:15.413Z,16.12
2019-04-01T17:10:42.305Z,16.02
2019-04-01T17:13:09.136Z,15.10
2019-04-01T17:15:36.080Z,17.15
2019-04-01T17:18:03.021Z,15.03
2019-04-01T17:20:29.874Z,14.45
2019-04-01T17:23:07.617Z,15.60
2019-04-01T17:25:33.571Z,14.40
2019-04-01T17:28:03.001Z,14.58
2019-04-01T17:30:34.166Z,15.50
2019-04-01T17:33:08.079Z,15.80
2019-04-01T17:35:36.883Z,16.00
2019-04-01T17:38:07.199Z,15.75
2019-04-01T17:40:36.817Z,16.35
2019-04-01T17:43:09.632Z,15.13
2019-04-01T17:45:41.084Z,15.48
2019-04-01T17:48:10.243Z,15.75
2019-04-01T17:50:42.988Z,15.78
2019-04-01T17:53:18.600Z,16.97
2019-04-01T17:55:48.639Z,19.40
2019-04-01T17:58:20.560Z,18.50
2019-04-01T18:00:52.414Z,16.17
2019-04-01T18:03:23.002Z,16.70
2019-04-01T18:05:53.459Z,15.75
2019-04-01T18:08:21.072Z,15.68
2019-04-01T18:10:52.226Z,15.10
2019-04-01T18:13:19.632Z,15.47
2019-04-01T18:15:49.961Z,15.23
2019-04-01T18:18:26.615Z,16.40
2019-04-01T18:20:50.393Z,14.33
2019-04-01T18:23:18.148Z,14.58
2019-04-01T18:25:53.340Z,15.00
2019-04-01T18:28:22.947Z,15.80
2019-04-01T18:30:53.940Z,15.27
2019-04-01T18:33:21.593Z,16.40
2019-04-01T18:35:52.023Z,15.43
2019-04-01T18:38:21.011Z,16.00
2019-04-01T18:40:54.216Z,15.20
2019-04-01T18:43:25.661Z,17.37
2019-04-01T18:45:55.130Z,14.85
2019-04-01T18:48:28.469Z,15.63
2019-04-01T18:51:00.195Z,16.32
2019-04-01T18:53:37.100Z,14.28
2019-04-01T18:56:28.216Z,15.38
2019-04-01T18:59:01.537Z,14.78
2019-04-01T19:01:32.174Z,17.83
2019-04-01T19:04:01.697Z,23.30
2019-04-01T19:06:29.265Z,20.92
2019-04-01T19:09:08.718Z,17.62
2019-04-01T19:11:30.093Z,16.15
2019-04-01T19:14:02.490Z,15.30
2019-04-01T19:16:30.112Z,14.47
2019-04-01T19:19:03.229Z,14.73
2019-04-01T19:21:36.200Z,14.25
2019-04-01T19:24:06.880Z,13.03
2019-04-01T19:26:35.914Z,14.83
2019-04-01T19:29:11.102Z,14.93
2019-04-01T19:31:41.238Z,13.30
2019-04-01T19:34:10.678Z,15.93
2019-04-01T19:36:43.367Z,14.40
2019-04-01T19:39:16.034Z,14.80
2019-04-01T19:41:49.424Z,13.88
2019-04-01T19:44:22.218Z,15.15
2019-04-01T19:46:53.559Z,13.70
2019-04-01T19:49:30.446Z,13.45
2019-04-01T19:52:06.198Z,13.80
2019-04-01T19:54:38.457Z,14.75
2019-04-01T19:57:12.071Z,14.50
2019-04-01T19:59:47.003Z,12.40
2019-04-01T20:02:22.858Z,14.25
2019-04-01T20:04:56.356Z,14.17
2019-04-01T20:07:26.861Z,13.35
2019-04-01T20:09:57.620Z,14.07
2019-04-01T20:12:36.832Z,15.07
2019-04-01T20:15:12.714Z,14.85
2019-04-01T20:17:43.839Z,13.48
2019-04-01T20:20:18.324Z,14.90
2019-04-01T20:22:47.842Z,13.93
2019-04-01T20:25:19.336Z,14.07
2019-04-01T20:27:53.601Z,13.80
2019-04-01T20:30:25.210Z,14.15
2019-04-01T20:32:57.317Z,14.43
2019-04-01T20:35:28.295Z,14.50
2019-04-01T20:37:59.829Z,13.85
2019-04-01T20:40:42.620Z,13.40
2019-04-01T20:46:06.097Z,14.07
2019-04-01T20:48:36.113Z,14.30
2019-04-01T20:51:06.099Z,14.43
2019-04-01T20:53:44.215Z,14.58
2019-04-01T20:56:14.144Z,15.38
2019-04-01T20:58:55.759Z,15.58
2019-04-01T21:01:25.422Z,15.20
2019-04-01T21:03:55.869Z,15.72
2019-04-01T21:06:29.647Z,15.18
2019-04-01T21:09:06.390Z,14.53
2019-04-01T21:11:41.569Z,15.90
2019-04-01T21:14:05.330Z,15.72
2019-04-01T21:16:34.303Z,15.78
2019-04-01T21:19:08.524Z,15.10
2019-04-01T21:21:36.050Z,14.78
2019-04-01T21:24:06.361Z,14.68
2019-04-01T21:26:33.988Z,14.25
2019-04-01T21:29:05.353Z,13.95
2019-04-01T21:31:32.757Z,14.93
2019-04-01T21:34:01.636Z,15.13
2019-04-01T21:36:30.887Z,15.60
2019-04-01T21:39:02.221Z,15.38
2019-04-01T21:41:33.894Z,15.68
2019-04-01T21:44:03.334Z,14.30
2019-04-01T21:46:32.068Z,16.00
2019-04-01T21:49:03.735Z,15.40
2019-04-01T21:51:31.057Z,14.28
2019-04-01T21:54:02.150Z,15.10
2019-04-01T21:56:31.247Z,15.70
2019-04-01T21:59:00.422Z,14.80
2019-04-01T22:01:29.692Z,14.75
2019-04-01T22:03:57.126Z,15.28
2019-04-01T22:06:25.194Z,15.78
2019-04-01T22:08:52.921Z,14.10
2019-04-01T22:11:20.780Z,14.50
2019-04-01T22:13:49.990Z,15.20
2019-04-01T22:16:22.006Z,15.43
2019-04-01T22:18:55.351Z,15.57
2019-04-01T22:21:27.006Z,15.93
2019-04-01T22:24:02.103Z,14.18
2019-04-01T22:26:37.792Z,15.32
2019-04-01T22:29:11.395Z,15.30
2019-04-01T22:31:43.271Z,16.20
2019-04-01T22:34:15.132Z,16.35
2019-04-01T22:36:47.707Z,15.80
2019-04-01T22:39:27.083Z,14.90
2019-04-01T22:41:58.394Z,14.68
2019-04-01T22:44:28.555Z,16.05
2019-04-01T22:47:00.053Z,15.78
2019-04-01T22:49:35.816Z,16.00
2019-04-01T22:52:12.077Z,16.73
2019-04-01T22:54:43.519Z,15.60
2019-04-01T22:57:17.214Z,14.80
2019-04-01T22:59:50.005Z,15.45
2019-04-01T23:02:21.325Z,15.48
2019-04-01T23:04:58.113Z,15.75
2019-04-01T23:07:29.644Z,15.83
2019-04-01T23:10:02.448Z,15.08
2019-04-01T23:12:42.391Z,13.62
2019-04-01T23:15:15.349Z,13.30
2019-04-01T23:17:52.763Z,13.33
2019-04-01T23:20:26.361Z,15.32
2019-04-01T23:23:05.032Z,15.68
2019-04-01T23:25:37.347Z,14.28
2019-04-01T23:28:13.301Z,14.30
2019-04-01T23:30:53.874Z,15.60
2019-04-01T23:33:26.747Z,13.90
2019-04-01T23:36:03.825Z,15.50
2019-04-01T23:38:38.097Z,16.67
2019-04-01T23:41:12.925Z,14.70
2019-04-01T23:44:10.094Z,16.15
2019-04-01T23:46:45.608Z,16.00
2019-04-01T23:49:26.122Z,17.60
2019-04-01T23:51:59.006Z,15.40
2019-04-01T23:54:31.834Z,14.80
2019-04-01T23:57:07.505Z,14.03
2019-04-01T23:59:40.416Z,16.40
